L25 weather

Pearce Ferry Airport
Meadview, Arizona, United States

Public forecast

Using degrees Fahrenheit for public forecast. Weather courtesy of forecast.io.

METAR (pilot weather report)

Closest report is Nellis Air Force Base, 48.6 nm (90.1 km) W. Retrieved 2019/03/25 11:58 UTC (2 hours ago):

KLSV 251158Z 32003KT 10SM CLR 10/M01 A3018 RMK A02A SLP207 WND DATA ESTMD T01021009 10153 20105 55004 $

TAF (pilot weather forecast)

Closest forecast is Nellis Air Force Base, 48.6 nm (90.1 km) W. Retrieved 2019/03/25 07:48 UTC (6 hours ago):

TAF KLSV 250700Z 2507/2613 VRB06KT 9999 SKC QNH3012INS BECMG 2517/2518 18009KT 9999 FEW180 SCT220 QNH3005INS TX25/2523Z TN13/2515Z